Time;durP1;ratioP1;P1;durP2;ratioP2;P2;SDS_P1;SDS_P2;PMS_P1;PMS_P2;Temp;Humidity;BMP_temperature;BMP_pressure;BME280_temperature;BME280_humidity;BME280_pressure;Samples;Min_cycle;Max_cycle;Signal;HPM_P1;HPM_P2
2022/05/16 00:02:09;;;;;;;36.45;16.88;;;;;;;13.18;100.00;99986.13;5003794;28;20030;-83
2022/05/16 00:04:37;;;;;;;38.97;16.75;;;;;;;13.15;100.00;99978.47;4972509;28;20176;-83
2022/05/16 00:07:02;;;;;;;41.90;16.05;;;;;;;13.00;100.00;99958.97;5009951;28;20044;-82
2022/05/16 00:09:30;;;;;;;32.38;14.88;;;;;;;13.14;100.00;99982.19;5023082;28;20034;-84
2022/05/16 00:11:56;;;;;;;36.13;15.82;;;;;;;13.09;100.00;99964.97;5010654;28;20087;-83
2022/05/16 00:14:24;;;;;;;33.58;15.75;;;;;;;13.14;100.00;99970.56;5003880;28;20037;-85
2022/05/16 00:16:50;;;;;;;39.03;16.17;;;;;;;13.15;100.00;99967.66;5025474;28;20026;-87
2022/05/16 00:19:16;;;;;;;35.03;16.15;;;;;;;13.17;100.00;99956.63;4989835;28;20038;-84
2022/05/16 00:21:42;;;;;;;41.88;17.23;;;;;;;13.18;100.00;99947.50;5006622;28;20058;-83
2022/05/16 00:24:07;;;;;;;45.58;17.55;;;;;;;13.22;100.00;99956.81;5010804;28;20052;-84
2022/05/16 00:26:34;;;;;;;28.20;11.85;;;;;;;13.25;100.00;99944.78;5009302;28;20502;-82
2022/05/16 00:29:00;;;;;;;40.67;17.45;;;;;;;13.22;100.00;99948.72;5008720;28;20030;-83
2022/05/16 00:31:25;;;;;;;37.38;16.10;;;;;;;13.25;100.00;99960.97;5007615;28;20056;-82
2022/05/16 00:33:51;;;;;;;37.17;16.58;;;;;;;13.27;100.00;99950.84;5020393;28;20535;-82
2022/05/16 00:36:16;;;;;;;39.90;15.50;;;;;;;13.26;100.00;99949.13;5003757;28;20026;-83
2022/05/16 00:38:42;;;;;;;32.22;15.35;;;;;;;13.25;100.00;99929.41;5009790;28;20017;-84
2022/05/16 00:41:08;;;;;;;36.42;17.88;;;;;;;13.29;100.00;99946.06;5012902;28;20414;-84
2022/05/16 00:43:57;;;;;;;43.67;17.85;;;;;;;13.26;100.00;99949.13;4989678;28;20353;-84
2022/05/16 00:46:25;;;;;;;34.95;13.38;;;;;;;13.07;100.00;99924.72;5007450;28;20149;-84
2022/05/16 00:48:51;;;;;;;41.90;17.35;;;;;;;13.09;100.00;99941.50;4994328;28;20046;-82
2022/05/16 00:51:27;;;;;;;42.83;18.42;;;;;;;13.01;100.00;99928.25;5006002;28;20059;-84
2022/05/16 00:54:08;;;;;;;38.92;17.98;;;;;;;12.93;100.00;99932.00;5006329;28;20419;-84
2022/05/16 00:56:34;;;;;;;42.03;18.63;;;;;;;12.86;100.00;99924.94;5005034;28;20029;-82
2022/05/16 00:59:00;;;;;;;40.92;17.50;;;;;;;12.90;100.00;99935.13;5007987;28;20103;-84
2022/05/16 01:06:57;;;;;;;35.67;16.45;;;;;;;12.87;100.00;99915.84;5004427;28;20058;-85
2022/05/16 01:09:23;;;;;;;34.38;15.57;;;;;;;12.83;100.00;99917.28;4966345;28;20033;-83
2022/05/16 01:11:48;;;;;;;49.10;19.05;;;;;;;12.86;100.00;99924.94;5002528;28;20033;-84
2022/05/16 01:14:52;;;;;;;45.95;18.02;;;;;;;12.85;100.00;99934.09;5020354;28;20022;-85
2022/05/16 01:17:18;;;;;;;34.00;16.40;;;;;;;12.84;100.00;99918.97;5011439;28;20034;-81
2022/05/16 01:19:43;;;;;;;51.83;18.20;;;;;;;12.75;100.00;99913.78;5003544;28;20034;-84
2022/05/16 01:22:29;;;;;;;37.67;18.58;;;;;;;12.78;100.00;99926.03;5019648;28;20048;-81
2022/05/16 01:24:58;;;;;;;37.83;15.38;;;;;;;12.68;100.00;99915.66;4993116;28;20044;-83
2022/05/16 01:27:24;;;;;;;40.55;17.38;;;;;;;12.45;100.00;99880.22;5004585;28;20026;-83
2022/05/16 01:29:52;;;;;;;40.88;18.13;;;;;;;12.71;100.00;99928.72;5004210;28;20034;-85
2022/05/16 01:32:18;;;;;;;44.13;18.75;;;;;;;12.71;100.00;99928.72;4986815;28;20033;-82
2022/05/16 01:34:44;;;;;;;39.40;16.40;;;;;;;12.65;100.00;99916.09;4986974;28;20096;-84
2022/05/16 01:37:11;;;;;;;38.70;16.58;;;;;;;12.66;100.00;99920.44;4982309;28;20052;-83
2022/05/16 01:39:39;;;;;;;39.90;17.33;;;;;;;12.60;100.00;99909.66;5003055;28;20036;-85
2022/05/16 01:42:05;;;;;;;35.08;16.52;;;;;;;12.57;100.00;99899.28;4989866;28;20037;-84
2022/05/16 01:44:30;;;;;;;39.70;17.40;;;;;;;12.60;100.00;99912.38;5004061;28;20363;-86
2022/05/16 01:46:57;;;;;;;37.08;16.95;;;;;;;12.48;100.00;99909.47;5018253;28;20060;-82
2022/05/16 01:49:22;;;;;;;33.53;16.08;;;;;;;12.57;100.00;99910.06;5009382;28;20474;-83
2022/05/16 01:51:48;;;;;;;42.13;18.08;;;;;;;12.56;100.00;99914.63;5008544;28;20038;-84
2022/05/16 01:54:13;;;;;;;38.15;17.05;;;;;;;12.53;100.00;99910.50;5000232;28;22397;-83
2022/05/16 01:56:40;;;;;;;41.33;18.85;;;;;;;12.53;100.00;99906.97;5010432;28;20486;-85
2022/05/16 01:59:06;;;;;;;55.78;19.42;;;;;;;12.52;100.00;99905.31;5019047;28;20029;-84
2022/05/16 02:01:32;;;;;;;45.85;17.67;;;;;;;12.55;100.00;99904.91;5007843;28;20156;-84
2022/05/16 02:03:58;;;;;;;41.97;18.55;;;;;;;12.38;100.00;99869.44;5004333;28;20041;-83
2022/05/16 02:06:25;;;;;;;39.88;17.48;;;;;;;12.52;100.00;99895.34;5006153;28;20041;-85
2022/05/16 02:08:51;;;;;;;45.70;17.52;;;;;;;12.51;100.00;99890.16;5001838;28;20042;-84
2022/05/16 02:11:16;;;;;;;46.92;18.55;;;;;;;12.51;100.00;99896.38;4988730;28;20361;-81
2022/05/16 02:13:43;;;;;;;43.55;17.50;;;;;;;12.51;100.00;99887.47;5005315;28;20119;-84
2022/05/16 02:16:09;;;;;;;33.83;14.90;;;;;;;12.49;100.00;99886.84;5010315;28;20063;-82
2022/05/16 02:18:36;;;;;;;37.00;14.73;;;;;;;12.50;100.00;99891.22;5026053;28;20033;-82
2022/05/16 02:26:33;;;;;;;37.72;15.70;;;;;;;12.45;100.00;99880.22;5001561;28;20068;-84
2022/05/16 02:28:59;;;;;;;40.15;16.40;;;;;;;12.46;100.00;99873.78;4993660;28;20056;-84
2022/05/16 02:31:25;;;;;;;44.85;17.55;;;;;;;12.42;100.00;99859.91;5008033;28;20025;-85
2022/05/16 02:33:53;;;;;;;51.28;18.58;;;;;;;12.43;100.00;99864.25;5010061;28;20037;-84
2022/05/16 02:36:18;;;;;;;43.63;17.67;;;;;;;12.40;100.00;99861.97;5000016;28;20065;-85
2022/05/16 02:38:47;;;;;;;36.13;15.75;;;;;;;12.45;100.00;99861.34;5009301;28;20030;-85
2022/05/16 02:41:15;;;;;;;43.42;18.00;;;;;;;12.46;100.00;99863.84;4977596;28;20030;-84
2022/05/16 02:43:41;;;;;;;35.78;15.10;;;;;;;12.43;100.00;99844.56;5004673;28;20033;-84
2022/05/16 02:46:07;;;;;;;34.25;15.20;;;;;;;12.46;100.00;99850.38;4986910;28;20030;-83
2022/05/16 02:48:32;;;;;;;38.03;15.57;;;;;;;12.37;100.00;99840.00;5005220;28;20028;-83
2022/05/16 02:50:58;;;;;;;41.30;14.40;;;;;;;12.47;100.00;99852.00;5011031;28;20029;-81
2022/05/16 02:53:24;;;;;;;44.40;17.25;;;;;;;12.47;100.00;99856.59;5010089;28;20497;-84
2022/05/16 02:55:49;;;;;;;40.13;16.27;;;;;;;12.44;100.00;99857.00;5005609;28;20403;-83
2022/05/16 02:58:15;;;;;;;37.80;15.88;;;;;;;12.49;100.00;99859.88;5006398;28;20112;-86
2022/05/16 03:00:40;;;;;;;43.92;17.15;;;;;;;12.50;100.00;99851.59;5023845;28;20034;-84
2022/05/16 03:03:06;;;;;;;31.13;15.10;;;;;;;12.29;100.00;99816.78;5006353;28;20120;-84
2022/05/16 03:05:32;;;;;;;33.05;14.60;;;;;;;12.52;100.00;99844.13;5009567;28;20038;-84
2022/05/16 03:07:58;;;;;;;32.10;14.82;;;;;;;12.49;100.00;99830.22;5000440;28;20030;-85
2022/05/16 03:10:24;;;;;;;37.28;15.38;;;;;;;12.53;100.00;99832.28;5025675;28;20026;-85
2022/05/16 03:12:51;;;;;;;37.63;14.90;;;;;;;12.44;100.00;99830.88;5023826;28;20037;-85
2022/05/16 03:15:17;;;;;;;34.33;13.93;;;;;;;12.47;100.00;99843.09;5006937;28;20448;-83
2022/05/16 03:17:42;;;;;;;39.92;16.35;;;;;;;12.41;100.00;99825.91;5001620;28;20041;-85
2022/05/16 03:20:16;;;;;;;30.75;12.63;;;;;;;12.35;100.00;99818.63;5007485;28;20030;-84
2022/05/16 03:22:47;;;;;;;29.80;11.75;;;;;;;12.35;100.00;99820.50;5009925;28;20087;-85
2022/05/16 03:25:15;;;;;;;22.20;11.40;;;;;;;12.43;100.00;99826.50;5004763;28;20460;-85
2022/05/16 03:27:41;;;;;;;28.15;14.10;;;;;;;12.39;100.00;99819.91;5004609;28;20054;-85
2022/05/16 03:30:09;;;;;;;25.77;9.75;;;;;;;12.37;100.00;99813.88;5009865;28;20232;-85
2022/05/16 03:32:36;;;;;;;25.48;11.77;;;;;;;12.50;100.00;99829.19;5020801;28;20468;-85
2022/05/16 03:35:02;;;;;;;28.42;11.80;;;;;;;12.49;100.00;99812.19;5003789;28;20026;-84
2022/05/16 03:37:27;;;;;;;25.15;11.45;;;;;;;12.51;100.00;99810.09;4998073;28;20030;-86
2022/05/16 03:42:37;;;;;;;27.73;10.95;;;;;;;12.57;100.00;99826.47;4998868;28;20026;-84
2022/05/16 03:45:04;;;;;;;28.63;11.75;;;;;;;12.52;100.00;99808.25;5019439;28;20456;-86
2022/05/16 03:47:30;;;;;;;22.00;11.05;;;;;;;12.62;100.00;99826.66;5005750;28;20022;-85
2022/05/16 03:49:55;;;;;;;25.50;10.75;;;;;;;12.59;100.00;99808.22;5005697;28;20041;-85
2022/05/16 03:52:21;;;;;;;26.38;10.38;;;;;;;12.58;100.00;99812.78;5006401;28;20030;-84
2022/05/16 03:54:47;;;;;;;26.25;10.77;;;;;;;12.51;100.00;99801.19;4987234;28;20057;-84
2022/05/16 03:57:15;;;;;;;29.08;9.88;;;;;;;12.57;100.00;99807.59;5003504;28;20057;-84
2022/05/16 03:59:43;;;;;;;20.40;10.38;;;;;;;12.62;100.00;99822.13;5006775;28;20030;-84
2022/05/16 04:02:09;;;;;;;25.33;11.02;;;;;;;12.60;100.00;99818.81;5021775;28;20030;-82
2022/05/16 04:04:35;;;;;;;25.85;10.60;;;;;;;12.50;100.00;99800.34;5005289;28;20569;-85
2022/05/16 04:07:00;;;;;;;21.23;9.95;;;;;;;12.63;100.00;99823.78;4999589;28;20506;-85
2022/05/16 04:09:26;;;;;;;23.02;10.13;;;;;;;12.63;100.00;99812.16;5005256;28;20273;-85
2022/05/16 04:11:52;;;;;;;23.20;9.75;;;;;;;12.59;100.00;99806.34;5004325;28;20061;-85
2022/05/16 04:14:17;;;;;;;17.58;8.30;;;;;;;12.60;100.00;99812.59;5021923;28;20079;-84
2022/05/16 04:16:43;;;;;;;18.73;9.13;;;;;;;12.64;100.00;99816.50;5011102;28;20036;-85
2022/05/16 04:19:14;;;;;;;18.27;9.23;;;;;;;12.69;100.00;99830.19;5001148;28;20034;-84
2022/05/16 04:21:42;;;;;;;21.45;9.65;;;;;;;12.69;100.00;99828.31;5018405;28;20022;-85
2022/05/16 04:24:08;;;;;;;20.55;9.55;;;;;;;12.60;100.00;99826.06;5027339;28;20036;-83
2022/05/16 04:26:37;;;;;;;21.55;9.55;;;;;;;12.72;100.00;99835.97;5003908;28;20030;-83
2022/05/16 04:29:03;;;;;;;19.95;8.65;;;;;;;12.71;100.00;99826.22;4989798;28;20038;-84
2022/05/16 04:31:28;;;;;;;18.95;9.50;;;;;;;12.72;100.00;99817.09;5002840;28;20041;-84
2022/05/16 04:33:57;;;;;;;18.75;9.13;;;;;;;12.70;100.00;99823.72;5021348;28;20037;-85
2022/05/16 04:36:22;;;;;;;16.85;8.13;;;;;;;12.56;100.00;99793.28;5006933;28;20522;-83
2022/05/16 04:38:48;;;;;;;15.88;8.23;;;;;;;12.60;100.00;99804.50;4988547;28;20049;-84
2022/05/16 04:43:58;;;;;;;17.00;7.90;;;;;;;12.44;100.00;99806.59;5008191;28;20029;-84
2022/05/16 04:46:23;;;;;;;16.67;8.35;;;;;;;12.42;100.00;99805.16;5023178;28;20145;-84
2022/05/16 04:48:49;;;;;;;18.98;7.97;;;;;;;12.28;100.00;99783.63;5005522;28;20030;-84
2022/05/16 04:51:14;;;;;;;19.58;8.05;;;;;;;12.52;100.00;99802.84;5009836;28;20057;-83
2022/05/16 04:53:40;;;;;;;16.17;7.93;;;;;;;12.56;100.00;99812.16;5005088;28;20459;-85
2022/05/16 04:56:06;;;;;;;10.40;5.80;;;;;;;12.67;100.00;99824.97;5003065;28;20045;-85
2022/05/16 04:58:33;;;;;;;19.10;7.70;;;;;;;12.71;100.00;99825.41;5006457;28;20030;-82
2022/05/16 05:01:00;;;;;;;18.40;7.93;;;;;;;12.72;100.00;99825.19;5003996;28;20038;-82
2022/05/16 05:03:25;;;;;;;13.55;7.30;;;;;;;12.77;100.00;99819.97;4990547;28;20033;-84
2022/05/16 05:05:52;;;;;;;15.57;7.28;;;;;;;12.79;100.00;99822.47;5014889;28;20046;-84
2022/05/16 05:08:18;;;;;;;23.33;8.32;;;;;;;12.83;100.00;99826.38;5020736;28;20033;-84
2022/05/16 05:16:20;;;;;;;18.83;8.55;;;;;;;12.90;100.00;99824.50;5012449;28;20087;-84
2022/05/16 05:18:46;;;;;;;16.88;7.38;;;;;;;12.94;100.00;99830.31;4987597;28;20041;-83
2022/05/16 05:21:11;;;;;;;16.83;7.65;;;;;;;12.95;100.00;99827.38;5006460;28;20026;-83
2022/05/16 05:23:39;;;;;;;22.85;8.07;;;;;;;12.87;100.00;99824.94;5007461;28;20412;-83
2022/05/16 05:26:06;;;;;;;21.35;8.07;;;;;;;13.00;100.00;99842.94;5020419;28;20068;-86
2022/05/16 05:28:38;;;;;;;17.90;7.97;;;;;;;13.00;100.00;99840.25;5009544;28;20042;-84
2022/05/16 05:31:06;;;;;;;23.27;8.85;;;;;;;13.03;100.00;99850.59;5002627;28;20053;-82
2022/05/16 05:33:34;;;;;;;22.33;8.80;;;;;;;13.01;100.00;99847.28;5022208;28;20117;-84
2022/05/16 05:36:06;;;;;;;23.30;8.05;;;;;;;12.77;100.00;99824.53;5006089;28;20044;-84
2022/05/16 05:38:32;;;;;;;20.33;7.35;;;;;;;12.82;100.00;99842.81;4988944;28;20029;-84
2022/05/16 05:40:57;;;;;;;22.55;8.10;;;;;;;12.86;100.00;99857.50;5000140;28;20487;-86
2022/05/16 05:43:23;;;;;;;23.25;9.00;;;;;;;12.74;100.00;99847.38;4990341;28;20085;-86
2022/05/16 05:45:51;;;;;;;25.88;9.30;;;;;;;12.72;100.00;99857.53;4998763;28;20029;-87
2022/05/16 05:48:16;;;;;;;24.92;9.50;;;;;;;12.71;100.00;99853.19;5022997;28;20048;-85
2022/05/16 05:50:42;;;;;;;22.02;8.05;;;;;;;12.69;100.00;99847.19;4985389;28;20546;-86
2022/05/16 05:53:07;;;;;;;23.10;9.00;;;;;;;12.69;100.00;99855.28;5003766;28;20410;-87
2022/05/16 05:55:36;;;;;;;27.73;10.07;;;;;;;12.72;100.00;99862.13;5006034;28;20034;-86
2022/05/16 05:58:01;;;;;;;26.58;10.45;;;;;;;12.71;100.00;99853.19;5007360;28;20025;-87
2022/05/16 06:00:27;;;;;;;24.80;9.45;;;;;;;12.68;100.00;99848.25;5001094;28;20031;-84
2022/05/16 06:02:53;;;;;;;21.63;9.85;;;;;;;12.62;100.00;99838.31;5007102;28;20087;-82
2022/05/16 06:05:21;;;;;;;22.23;10.10;;;;;;;12.66;100.00;99844.09;5009080;28;20147;-85
2022/05/16 06:07:51;;;;;;;28.67;9.30;;;;;;;12.75;100.00;99857.16;5029149;28;20101;-87
2022/05/16 06:10:19;;;;;;;21.10;8.40;;;;;;;12.76;100.00;99855.28;5010081;28;20308;-88
2022/05/16 06:12:45;;;;;;;24.95;7.93;;;;;;;12.78;100.00;99858.59;4997990;28;20040;-87
2022/05/16 06:15:12;;;;;;;22.02;8.63;;;;;;;12.81;100.00;99868.94;5013730;28;20026;-87
2022/05/16 06:17:40;;;;;;;29.15;8.70;;;;;;;12.84;100.00;99865.00;5023305;28;20029;-83
2022/05/16 06:20:08;;;;;;;21.95;8.82;;;;;;;12.87;100.00;99865.41;5026512;28;20502;-92
2022/05/16 06:22:34;;;;;;;28.02;7.78;;;;;;;12.93;100.00;99878.03;4997355;28;20092;-87
2022/05/16 06:25:31;;;;;;;21.23;7.47;;;;;;;12.93;100.00;99879.91;4998835;28;20030;-84
2022/05/16 06:28:19;;;;;;;20.65;7.22;;;;;;;12.92;100.00;99880.97;5016201;28;20388;-87
2022/05/16 06:30:50;;;;;;;17.50;6.50;;;;;;;13.00;100.00;99894.22;5019971;28;20122;-88
2022/05/16 06:33:17;;;;;;;17.85;7.35;;;;;;;13.04;100.00;99884.63;5002193;28;20018;-89
2022/05/16 06:35:48;;;;;;;18.10;7.88;;;;;;;13.02;100.00;99875.94;5005783;28;20116;-87
2022/05/16 06:38:34;;;;;;;18.27;7.82;;;;;;;13.14;100.00;99884.19;5015414;28;20452;-83
2022/05/16 06:41:00;;;;;;;22.10;8.07;;;;;;;13.20;100.00;99892.28;5006479;28;20033;-91
2022/05/16 06:43:28;;;;;;;19.85;7.50;;;;;;;13.26;100.00;99893.31;5010409;28;20026;-85
2022/05/16 06:45:53;;;;;;;21.85;8.80;;;;;;;13.27;100.00;99886.03;4999850;28;20111;-86
2022/05/16 06:48:19;;;;;;;22.25;7.78;;;;;;;13.27;100.00;99872.53;5003260;28;21330;-87
2022/05/16 06:50:46;;;;;;;24.05;9.38;;;;;;;13.45;100.00;99882.63;5011778;28;20033;-87
2022/05/16 06:53:19;;;;;;;13.70;5.28;;;;;;;13.75;100.00;99890.97;5006643;28;20034;-84
2022/05/16 06:55:46;;;;;;;19.38;7.25;;;;;;;14.10;100.00;99904.84;5026383;28;20642;-89
2022/05/16 06:58:11;;;;;;;17.35;6.70;;;;;;;14.37;100.00;99894.66;5022971;28;20022;-88
2022/05/16 07:00:38;;;;;;;16.65;6.90;;;;;;;14.50;100.00;99899.94;5003094;28;20076;-86
2022/05/16 07:03:04;;;;;;;19.27;6.28;;;;;;;14.68;100.00;99911.84;5004067;28;20029;-83
2022/05/16 07:05:31;;;;;;;12.73;5.45;;;;;;;14.71;100.00;99903.28;4981027;28;20069;-86
2022/05/16 07:07:57;;;;;;;16.35;5.55;;;;;;;14.72;100.00;99897.66;5005188;28;20026;-86
2022/05/16 07:10:26;;;;;;;10.75;5.00;;;;;;;14.90;100.00;99899.56;4993172;28;20029;-87
2022/05/16 07:12:52;;;;;;;13.35;5.25;;;;;;;15.01;100.00;99902.56;4988317;28;20110;-84
2022/05/16 07:15:21;;;;;;;15.07;6.03;;;;;;;15.18;100.00;99911.72;5025630;28;20025;-83
2022/05/16 07:17:47;;;;;;;10.98;4.55;;;;;;;15.50;100.00;99917.78;5016664;28;20335;-81
2022/05/16 07:20:18;;;;;;;13.48;6.05;;;;;;;15.69;100.00;99918.63;5025874;28;20034;-83
2022/05/16 07:22:46;;;;;;;16.60;5.18;;;;;;;15.91;100.00;99921.63;5027321;28;20010;-81
2022/05/16 07:25:15;;;;;;;18.60;7.10;;;;;;;16.10;100.00;99911.53;5023527;28;20124;-87
2022/05/16 07:30:30;;;;;;;11.05;4.57;;;;;;;16.16;100.00;99913.31;5021414;28;20467;-81
2022/05/16 07:32:58;;;;;;;12.50;4.38;;;;;;;16.14;100.00;99931.72;5020609;28;20029;-89
2022/05/16 07:35:30;;;;;;;16.05;4.68;;;;;;;16.04;100.00;99934.16;5012013;28;20034;-88
2022/05/16 07:37:56;;;;;;;10.27;3.95;;;;;;;15.95;100.00;99932.81;5006135;28;20080;-81
2022/05/16 07:40:25;;;;;;;12.63;5.88;;;;;;;15.89;100.00;99925.63;5012543;28;20127;-83
2022/05/16 07:42:52;;;;;;;16.35;5.10;;;;;;;16.07;100.00;99927.44;4978013;28;20029;-84
2022/05/16 07:45:18;;;;;;;10.45;3.33;;;;;;;16.23;100.00;99930.31;5002375;28;20041;-91
2022/05/16 07:47:44;;;;;;;21.35;4.35;;;;;;;16.48;100.00;99937.41;5016768;28;20022;-86
2022/05/16 07:50:10;;;;;;;13.70;5.07;;;;;;;16.68;100.00;99937.06;4977481;28;20034;-81
2022/05/16 07:52:36;;;;;;;16.27;4.97;;;;;;;16.79;100.00;99946.31;4978972;28;20618;-82
2022/05/16 07:55:03;;;;;;;12.52;4.93;;;;;;;16.71;100.00;99944.75;4968675;28;20137;-87
2022/05/16 07:57:30;;;;;;;16.58;4.70;;;;;;;16.68;100.00;99947.94;4992770;28;20492;-83
2022/05/16 07:59:56;;;;;;;21.63;6.20;;;;;;;16.74;100.00;99946.97;4978961;28;20060;-83
2022/05/16 08:02:22;;;;;;;21.15;6.72;;;;;;;16.84;100.00;99947.25;5004785;28;20032;-90
2022/05/16 08:04:47;;;;;;;30.98;14.60;;;;;;;16.98;100.00;99938.84;5000072;28;20025;-81
2022/05/16 08:07:13;;;;;;;33.13;14.30;;;;;;;17.12;100.00;99940.25;5017875;28;20404;-86
2022/05/16 08:12:31;;;;;;;24.52;10.73;;;;;;;17.62;100.00;99955.94;5003284;28;20042;-83
2022/05/16 08:14:57;;;;;;;18.83;6.90;;;;;;;18.17;98.84;99955.38;5003635;28;20040;-85
2022/05/16 08:17:23;;;;;;;19.35;5.13;;;;;;;18.64;95.08;99955.06;5004592;28;20117;-89
2022/05/16 08:19:49;;;;;;;17.90;5.35;;;;;;;19.02;92.01;99956.19;5023208;28;20025;-91
2022/05/16 08:22:15;;;;;;;13.93;5.25;;;;;;;19.18;91.74;99953.66;5005411;28;20158;-81
2022/05/16 08:24:45;;;;;;;21.08;7.00;;;;;;;19.53;91.35;99945.13;5000188;28;20547;-86
2022/05/16 08:27:11;;;;;;;16.30;5.10;;;;;;;20.08;87.64;99946.00;5005885;28;20444;-83
2022/05/16 08:29:37;;;;;;;18.00;5.40;;;;;;;20.35;86.96;99938.63;5005349;28;20029;-82
2022/05/16 08:32:03;;;;;;;17.33;5.72;;;;;;;20.62;87.52;99952.22;5004716;28;20022;-81
2022/05/16 08:34:30;;;;;;;16.27;5.82;;;;;;;21.29;83.07;99950.72;5005321;28;20033;-82
2022/05/16 08:39:52;;;;;;;15.15;5.90;;;;;;;24.23;71.00;99945.44;5007811;28;20133;-83
2022/05/16 08:42:38;;;;;;;14.77;5.85;;;;;;;25.88;67.82;99953.66;5016030;28;20026;-80
2022/05/16 08:45:22;;;;;;;14.82;4.13;;;;;;;26.28;62.62;99966.00;5013723;28;20186;-80
2022/05/16 08:47:51;;;;;;;18.98;4.00;;;;;;;25.97;62.18;99979.41;5018202;28;20037;-81
2022/05/16 08:50:23;;;;;;;20.38;4.55;;;;;;;26.63;62.26;99963.78;5013801;28;20034;-81
2022/05/16 08:52:59;;;;;;;18.75;4.55;;;;;;;27.11;58.38;99976.44;5011968;28;20375;-81
2022/05/16 08:55:29;;;;;;;15.68;4.55;;;;;;;26.96;58.66;99959.06;5001151;28;20026;-83
2022/05/16 08:58:27;;;;;;;11.60;3.50;;;;;;;27.10;52.87;99963.78;5022436;28;20052;-81
2022/05/16 09:00:57;;;;;;;14.88;3.88;;;;;;;27.03;54.99;99975.19;5001533;28;20495;-81
2022/05/16 09:03:35;;;;;;;17.80;4.18;;;;;;;27.49;53.38;99971.53;4990980;28;20024;-82
2022/05/16 09:06:12;;;;;;;19.73;3.92;;;;;;;28.22;51.59;99982.69;5013559;28;20038;-86
2022/05/16 09:08:53;;;;;;;21.58;4.32;;;;;;;26.30;57.10;99985.81;5009048;28;20100;-90
2022/05/16 09:11:45;;;;;;;14.73;3.90;;;;;;;27.40;53.55;99984.44;4994472;28;20046;-88
2022/05/16 09:14:33;;;;;;;18.30;5.15;;;;;;;27.59;52.60;99987.09;5015786;28;20037;-86
2022/05/16 09:17:07;;;;;;;21.67;5.60;;;;;;;26.72;53.42;99978.50;4993803;28;20695;-87
2022/05/16 09:19:58;;;;;;;15.75;4.13;;;;;;;27.47;54.40;99981.25;5043576;28;20294;-86
2022/05/16 09:22:42;;;;;;;15.27;4.03;;;;;;;25.36;56.73;99967.22;4996602;28;20041;-90
2022/05/16 09:25:09;;;;;;;14.52;4.38;;;;;;;24.91;58.57;99985.84;4998810;28;20029;-90
2022/05/16 09:30:26;;;;;;;11.35;3.40;;;;;;;24.44;53.82;99970.88;5003915;28;20109;-90
2022/05/16 09:33:05;;;;;;;15.02;3.97;;;;;;;24.89;51.34;99984.50;4977757;28;20073;-90
2022/05/16 09:35:37;;;;;;;15.93;4.03;;;;;;;23.96;53.88;99978.88;5007316;28;20038;-89
2022/05/16 09:38:04;;;;;;;17.50;4.50;;;;;;;24.46;51.36;99979.66;5000609;28;20038;-87
2022/05/16 09:40:37;;;;;;;22.02;3.90;;;;;;;23.19;54.48;99975.63;4980128;28;20030;-87
2022/05/16 09:43:15;;;;;;;14.32;3.30;;;;;;;21.29;59.70;99967.13;4996335;28;20475;-89
2022/05/16 09:45:43;;;;;;;19.10;6.40;;;;;;;20.48;63.25;99986.50;5017234;28;20479;-87
2022/05/16 09:48:21;;;;;;;15.57;4.55;;;;;;;19.85;65.22;99983.44;5013585;28;20019;-86
2022/05/16 09:51:02;;;;;;;15.52;4.32;;;;;;;20.17;64.99;99993.59;5006897;28;20056;-88
2022/05/16 09:53:43;;;;;;;14.25;3.58;;;;;;;20.79;62.40;100001.25;5002926;28;20029;-87
2022/05/16 09:56:26;;;;;;;11.07;3.17;;;;;;;20.43;62.35;100000.94;5024596;28;20057;-84
2022/05/16 09:59:00;;;;;;;;;;;;;;;20.19;61.49;100010.50;5004177;28;20353;-89
2022/05/16 10:01:45;;;;;;;12.88;2.70;;;;;;;19.88;62.35;100006.66;5004650;28;19913;-88
2022/05/16 10:04:16;;;;;;;11.52;3.13;;;;;;;19.92;62.30;99996.88;4988209;28;20029;-88
2022/05/16 10:06:44;;;;;;;8.00;2.42;;;;;;;20.37;59.33;99982.03;5002421;28;20033;-87
2022/05/16 10:09:27;;;;;;;10.82;3.10;;;;;;;23.09;51.67;100019.53;4995732;28;20064;-89
2022/05/16 10:11:53;;;;;;;13.90;3.47;;;;;;;23.09;50.61;100014.84;4996344;28;20498;-88
2022/05/16 10:14:18;;;;;;;8.65;2.95;;;;;;;23.49;49.37;100019.41;5007130;28;20101;-87
2022/05/16 10:16:48;;;;;;;9.82;2.60;;;;;;;23.29;48.16;100018.63;5003278;28;20491;-89
2022/05/16 10:19:20;;;;;;;9.98;2.60;;;;;;;23.33;48.84;100026.03;5020905;28;20038;-89
2022/05/16 10:22:12;;;;;;;15.25;4.65;;;;;;;24.06;49.17;100031.00;5001860;28;20376;-88
2022/05/16 10:24:49;;;;;;;9.43;2.85;;;;;;;25.77;43.56;100038.28;5000021;28;20041;-87
2022/05/16 10:27:17;;;;;;;9.57;2.78;;;;;;;26.44;41.15;100026.41;5003876;28;20041;-87
2022/05/16 10:29:46;;;;;;;14.10;2.80;;;;;;;24.98;44.53;100029.50;5000656;28;20034;-88
2022/05/16 10:35:27;;;;;;;12.27;3.25;;;;;;;26.28;42.71;100043.16;5019639;28;20049;-90
2022/05/16 10:37:55;;;;;;;15.75;3.22;;;;;;;28.11;40.69;100036.56;5001588;28;20125;-86
2022/05/16 10:40:26;;;;;;;13.93;3.45;;;;;;;28.80;38.20;100034.38;5002026;28;20455;-89
2022/05/16 10:43:02;;;;;;;11.70;3.22;;;;;;;26.20;42.62;100038.31;4996000;28;20034;-90
2022/05/16 10:45:30;;;;;;;18.52;3.47;;;;;;;24.39;46.63;100045.06;4985593;28;20137;-88
2022/05/16 10:48:05;;;;;;;19.50;3.88;;;;;;;23.12;52.16;100047.19;5006803;28;20018;-87
2022/05/16 10:50:53;;;;;;;9.20;2.72;;;;;;;20.30;68.23;100057.88;4983771;28;20030;-83
2022/05/16 10:53:55;;;;;;;8.38;2.65;;;;;;;18.12;82.84;100052.41;4991247;28;20468;-83
2022/05/16 10:56:48;;;;;;;12.73;3.40;;;;;;;17.07;92.18;100054.22;4994902;28;20140;-86
2022/05/16 10:59:48;;;;;;;10.15;3.63;;;;;;;17.21;94.79;100054.81;5003258;28;20037;-84
2022/05/16 11:02:36;;;;;;;11.30;3.25;;;;;;;18.00;92.51;100036.13;5011845;28;20061;-83
2022/05/16 11:05:42;;;;;;;8.18;3.40;;;;;;;17.98;96.10;100049.97;5022142;28;20037;-83
2022/05/16 11:08:35;;;;;;;14.80;3.42;;;;;;;17.90;98.68;100055.78;5007835;28;20033;-85
2022/05/16 11:11:13;;;;;;;16.02;3.60;;;;;;;18.36;99.67;100062.09;5012900;28;20176;-82
2022/05/16 11:13:42;;;;;;;8.27;3.55;;;;;;;20.24;88.04;100069.81;4988847;28;20057;-83
2022/05/16 11:16:28;;;;;;;11.77;2.80;;;;;;;22.92;75.82;100067.22;5000303;28;20025;-82
2022/05/16 11:19:14;;;;;;;10.07;2.70;;;;;;;23.81;73.49;100069.53;4995977;28;20050;-87
2022/05/16 11:22:00;;;;;;;13.15;4.53;;;;;;;24.08;74.01;100069.13;4990307;28;20053;-84
2022/05/16 11:25:00;;;;;;;15.00;3.17;;;;;;;23.37;71.81;100075.69;4990366;28;20124;-87
2022/05/16 11:27:34;;;;;;;9.23;2.28;;;;;;;22.30;73.40;100081.94;4998478;28;20041;-84
2022/05/16 11:30:33;;;;;;;10.43;2.63;;;;;;;22.07;75.86;100084.03;5008673;28;20120;-87
2022/05/16 11:33:10;;;;;;;14.35;2.47;;;;;;;21.90;77.80;100076.03;4991217;28;20038;-85
2022/05/16 11:35:44;;;;;;;8.63;2.35;;;;;;;21.91;75.20;100085.03;5011459;28;20034;-84
2022/05/16 11:38:26;;;;;;;5.68;2.30;;;;;;;23.58;68.03;100065.50;4982618;28;20045;-85
2022/05/16 11:41:08;;;;;;;9.77;2.13;;;;;;;24.90;65.53;100072.22;5026840;28;20519;-85
2022/05/16 11:43:42;;;;;;;4.93;1.85;;;;;;;24.68;62.99;100063.59;5004220;28;20029;-85
2022/05/16 11:46:13;;;;;;;5.63;1.90;;;;;;;23.61;67.01;100081.41;5011272;28;20141;-87
2022/05/16 11:49:11;;;;;;;6.30;2.13;;;;;;;23.25;68.29;100089.69;5018233;28;20026;-85
2022/05/16 11:52:04;;;;;;;5.95;2.08;;;;;;;22.26;70.21;100089.88;5021407;28;20040;-85
2022/05/16 11:54:35;;;;;;;6.82;1.95;;;;;;;23.31;67.32;100090.50;5021562;28;20052;-85
2022/05/16 12:02:35;;;;;;;8.55;2.15;;;;;;;23.54;65.61;100078.13;5004352;28;20034;-86
2022/05/16 12:05:01;;;;;;;7.68;2.35;;;;;;;24.14;65.04;100082.59;5026271;28;20033;-87
2022/05/16 12:07:35;;;;;;;6.93;2.17;;;;;;;24.08;63.88;100080.97;5005938;28;20041;-86
2022/05/16 12:10:22;;;;;;;11.20;2.60;;;;;;;23.27;65.07;100088.31;5004461;28;20034;-86
2022/05/16 12:13:10;;;;;;;5.93;2.47;;;;;;;25.35;58.31;100085.84;5007156;28;20030;-88
2022/05/16 12:15:36;;;;;;;11.10;3.38;;;;;;;25.90;55.19;100085.53;5017607;28;20118;-85